Aeroporto :
LOGIN :

Iscrizione | Disclaimer

   EN    FR    IT 

 










Sommario :    VFR   VFR Marginale   IFR   IFR Intensivo   IFR Molto Intensivo
Visibilità : 
Base nubi : 
>= 8 km
>= 3000ft
5 / 8 km
1000 / 3000 ft
1500m / 5 km
500 / 1000 ft
800 / 1500m
200 / 500 ft
< 800m
< 200 ft
Simboli :   Temporali  Nebbia  Neve Forte  Precipitazioni Forti  Vento > 20 kt
SIGMETs :   Varie  Temporali  Ghiacco  Turbolenza  Onda orograficha  Ceneri Vulcaniche






- Altitudine del aeroporto : 1178 ft
- Codice IATA : EVG


ESND - Sveg

ULTIMO METAR :
  • 221050Z AUTO 32012G23KT 280V360 9999 SCT035/// 02/M04 Q1020

METARs OBSOLETI :
  • 221020Z AUTO 32009KT 280V360 9999 BKN035/// 02/M03 Q1019
  • 220950Z AUTO 31011KT 280V340 9999 BKN030/// OVC046/// 01/M02 Q1019 RERA
  • 220920Z AUTO 30012KT 9999 FEW019/// BKN026/// OVC038/// 01/M02 Q1018
  • 220850Z 31013KT 9999 FEW021 01/M03 Q1017
  • 220820Z AUTO 31013KT 290V350 9999 FEW022/// BKN041/// 00/M03 Q1017

TAF N/A



MetMap, La meteo Aeronautica in un colpo d'occhio ! - Copyright ORBIFLY Dicembre 2007 - Disclaimer

ORBIFLY MET'MAP TEAM :

Programmazione e sviluppo : Alexandra Zaïnal
Concezione : Baudouin d'Aumeries
Aiuto per la programmazione : Marc-Olivier Méhu
Supporto tecnico e logistico : Manuel Goepfert
Aiuto per la traduzione : Arnaldo La Scala

Contatto : metmap@orbifly.com




FONTI E CREDITI :

   NOAA